Terminal Aerodrome Forecast
Issued by NWS St Louis, MO

Home | Current Version | Previous Version | Text Only | Print | Product List | Glossary On
Versions: 1 2 3 4 5 6 7 8 9 10 11 12 13 14 15 16 17 18 19 20 21 22 23
000
FTUS43 KLSX 242339
TAFCOU
TAF
KCOU 242339Z 2500/2524 20007KT P6SM SCT045 SCT250
     FM250200 VRB04KT P6SM BKN200
     FM250900 23007KT P6SM BKN200
     FM251500 29006KT P6SM SCT035=

USA.gov is the U.S. government's official web portal to all federal, state and local government web resources and services.